CheckWX is a tool to help pilots better visualize weather data.  It is not intended as a substitute for an official pre-flight weather briefing.

11:12:32 UTC

EGGP METAR
Liverpool John Lennon Airport
Liverpool, United Kingdom
Current

23 mins ago

EGGP 151050Z 10004KT 060V130 9999 8000E SCT010 BKN021 12/12 Q1002
Observed
Oct-15 @ 10:50 UTC
Wind
  • 100° at 4 KTS
Visibility
10,000+ meters
Flight Rules
MVFR
Cloud Levels
  • Scattered at 1,000' AGL
  • Broken at 2,100' AGL
Temperature
12°C / 54°F
Dewpoint
12°C / 54°F
Humidity
100%
Altimeter
29.59" Hg
Pressure
1001.92 hPa
Previous

53 mins ago

EGGP 151020Z VRB03KT 9999 7000E SCT010 BKN021 11/11 Q1002
Observed
Oct-15 @ 10:20 UTC
Wind
  • Variable at 3 KTS
Visibility
10,000+ meters
Flight Rules
MVFR
Cloud Levels
  • Scattered at 1,000' AGL
  • Broken at 2,100' AGL
Temperature
11°C / 52°F
Dewpoint
11°C / 52°F
Humidity
100%
Altimeter
29.59" Hg
Pressure
1001.92 hPa
Previous

1 hour ago

EGGP 150950Z VRB02KT 7000 BKN006 11/11 Q1003
Observed
Oct-15 @ 09:50 UTC
Wind
  • Variable at 2 KTS
Visibility
7,000 meters
Flight Rules
IFR
Cloud Levels
  • Broken at 600' AGL
Temperature
11°C / 52°F
Dewpoint
11°C / 52°F
Humidity
100%
Altimeter
29.62" Hg
Pressure
1002.92 hPa